Harmony, West Virginia
Current Conditions -  °F | °C
As of 3:54 AM on Monday 24 Nov 2014 (Local Time) from KCRW Reporting Station
Overcast Overcast  
Wind Chill: 65°   Ceiling: 7000
Heat Index: 65°   Visibility: 10mi
Dew Point: 50°   Wind: 21mph
Humidity: 58%   Direction: 200°SSW
Pressure: 29.5"   Gusts: 30mph
Location:  38.6926°N, 81.4812°W
Report Text: KCRW 240854Z 20018G26KT 10SM FEW043 OVC070 18/10 A2950 RMK AO2 PK WND 21031/0807 SLP984 T01830100 53016
Loading
Personal Weather Stations






























Interactive Weather Map New forecast layout! Learn more

10-Day Weather Forecast

Advertisements
Track Severe Weather on mobile